Black Hawk, South Dakota
Current Conditions -  °F | °C
As of 9:22 AM on Monday 24 Nov 2014 (Local Time) from KRCA Reporting Station
Light Snow Light Snow  
Wind Chill: 19°   Ceiling: 1000
Heat Index: 27°   Visibility: 1mi
Dew Point: 23°   Wind: 7mph
Humidity: 86%   Direction: 50°NE
Pressure: 29.85"   Gusts: NA
Location:  44.17°N, 103.33°W
Report Text: KRCA 241622Z 05006KT 1SM -SN FEW005 OVC010 M03/M05 A2985 RMK AO2A
Loading
Personal Weather Stations






























Interactive Weather Map New forecast layout! Learn more

10-Day Weather Forecast

Advertisements
Track Severe Weather on mobile